Time;durP1;ratioP1;P1;durP2;ratioP2;P2;SDS_P1;SDS_P2;PMS_P1;PMS_P2;Temp;Humidity;BMP_temperature;BMP_pressure;BME280_temperature;BME280_humidity;BME280_pressure;Samples;Min_cycle;Max_cycle;Signal;HPM_P1;HPM_P2
2023/08/05 00:00:17;;;;;;;3.03;2.92;;;17.70;99.90;;;18.11;90.10;101589.38;5041143;28;20132;-72
2023/08/05 00:02:45;;;;;;;3.20;3.10;;;17.70;99.90;;;18.13;90.44;101598.25;5041413;28;20051;-72
2023/08/05 00:05:13;;;;;;;2.92;2.83;;;17.70;99.90;;;18.15;90.82;101590.19;5044274;28;20056;-72
2023/08/05 00:07:42;;;;;;;2.60;2.50;;;17.70;99.90;;;18.24;91.31;101595.31;5042361;28;20073;-72
2023/08/05 00:10:10;;;;;;;3.05;2.95;;;17.80;99.90;;;18.34;90.73;101587.00;5059024;28;20549;-71
2023/08/05 00:12:40;;;;;;;2.78;2.67;;;17.90;99.90;;;18.38;90.01;101594.06;5042641;28;20491;-71
2023/08/05 00:15:09;;;;;;;2.83;2.73;;;18.00;99.90;;;18.34;90.11;101588.81;5042338;28;20045;-72
2023/08/05 00:17:38;;;;;;;2.85;2.75;;;18.00;99.90;;;18.34;89.68;101586.13;5055598;28;20316;-72
2023/08/05 00:20:09;;;;;;;3.00;2.90;;;18.00;99.90;;;18.26;90.33;101586.31;5044341;28;20060;-71
2023/08/05 00:22:37;;;;;;;3.45;3.35;;;17.80;99.90;;;18.26;90.78;101583.63;5044684;28;20045;-70
2023/08/05 00:25:06;;;;;;;3.65;3.53;;;17.80;99.90;;;18.32;91.05;101571.88;5040961;28;20037;-72
2023/08/05 00:27:35;;;;;;;2.88;2.78;;;17.90;99.90;;;18.35;90.83;101574.50;5044319;28;20064;-71
2023/08/05 00:30:08;;;;;;;2.78;2.67;;;18.00;99.90;;;18.35;90.66;101572.69;5054273;28;20053;-71
2023/08/05 00:32:36;;;;;;;3.05;2.95;;;18.00;99.90;;;18.39;90.74;101577.06;5040752;28;20046;-73
2023/08/05 00:35:05;;;;;;;3.20;3.10;;;18.00;99.90;;;18.49;90.51;101562.53;5042195;28;20431;-71
2023/08/05 00:37:36;;;;;;;3.00;2.90;;;18.10;99.90;;;18.61;90.20;101558.66;5059254;28;20107;-72
2023/08/05 00:40:06;;;;;;;;;;;18.20;99.90;;;18.60;89.98;101560.47;5056763;28;20108;-71
2023/08/05 00:42:34;;;;;;;3.40;3.30;;;18.20;99.90;;;18.65;89.27;101558.56;5032759;28;19921;-71
2023/08/05 00:45:03;;;;;;;3.10;3.00;;;18.30;99.90;;;18.65;88.50;101560.34;5064327;28;20049;-72
2023/08/05 00:47:33;;;;;;;2.60;2.50;;;18.30;99.90;;;18.62;88.41;101565.81;5032749;28;20041;-72
2023/08/05 00:50:03;;;;;;;3.00;2.90;;;18.20;99.90;;;18.59;88.25;101561.38;5037206;28;20053;-72
2023/08/05 00:52:31;;;;;;;3.42;3.33;;;18.20;99.90;;;18.63;88.10;101559.50;5057977;28;20132;-72
2023/08/05 00:55:00;;;;;;;2.67;2.58;;;18.20;99.90;;;18.57;88.09;101565.03;5043320;28;20053;-71
2023/08/05 00:57:28;;;;;;;2.55;2.45;;;18.20;99.90;;;18.66;87.94;101571.03;5041550;28;20076;-72
2023/08/05 00:59:56;;;;;;;2.92;2.83;;;18.20;99.90;;;18.72;87.76;101565.50;5044032;28;20079;-73
2023/08/05 01:02:25;;;;;;;3.33;3.22;;;18.40;99.90;;;18.76;87.54;101568.97;5040718;28;20068;-70
2023/08/05 01:04:55;;;;;;;3.20;3.10;;;18.40;99.90;;;18.75;87.45;101561.88;5056046;28;20095;-72
2023/08/05 01:07:24;;;;;;;2.70;2.60;;;18.40;99.90;;;18.71;87.30;101560.19;5043669;28;20049;-72
2023/08/05 01:09:53;;;;;;;3.10;3.00;;;18.40;99.90;;;18.66;88.15;101552.25;5053874;28;20045;-71
2023/08/05 01:12:22;;;;;;;2.70;2.60;;;18.40;99.90;;;18.66;88.61;101562.97;5042193;28;20052;-72
2023/08/05 01:14:50;;;;;;;3.22;3.13;;;18.30;99.90;;;18.66;89.15;101560.31;5042276;28;20120;-73
2023/08/05 01:17:18;;;;;;;2.78;2.67;;;18.30;99.90;;;18.59;90.03;101558.72;5046370;28;20473;-72
2023/08/05 01:19:47;;;;;;;2.90;2.80;;;18.20;99.90;;;18.31;90.19;101546.91;5045466;28;20049;-71
2023/08/05 01:22:27;;;;;;;3.10;3.00;;;17.90;99.90;;;18.32;90.31;101546.00;5047545;28;20044;-73
2023/08/05 01:25:05;;;;;;;2.90;2.80;;;17.90;99.90;;;18.41;90.17;101540.38;5045195;28;20048;-72
2023/08/05 01:27:38;;;;;;;3.00;2.90;;;18.00;99.90;;;18.46;90.80;101533.16;5060457;28;20445;-72
2023/08/05 01:30:08;;;;;;;2.75;2.65;;;18.10;99.90;;;18.51;90.51;101533.91;5035995;28;20367;-70
2023/08/05 01:32:38;;;;;;;3.20;3.10;;;18.10;99.90;;;18.51;89.88;101525.88;5045009;28;20144;-72
2023/08/05 01:35:09;;;;;;;3.10;3.00;;;18.10;99.90;;;18.55;90.19;101532.91;5062182;28;20072;-71
2023/08/05 01:37:38;;;;;;;3.08;2.97;;;18.10;99.90;;;18.64;90.29;101534.47;5045599;28;20494;-71
2023/08/05 01:40:08;;;;;;;3.35;3.25;;;18.20;99.90;;;18.66;89.91;101536.19;5061028;28;20041;-72
2023/08/05 01:42:37;;;;;;;3.05;2.95;;;18.20;99.90;;;18.57;89.79;101530.19;5046778;28;20072;-72
2023/08/05 01:45:07;;;;;;;3.00;2.90;;;18.20;99.90;;;18.58;89.79;101540.00;5044436;28;20046;-72
2023/08/05 01:47:36;;;;;;;3.08;2.97;;;18.20;99.90;;;18.61;90.01;101534.53;5035926;28;20494;-72
2023/08/05 01:50:07;;;;;;;2.80;2.70;;;18.20;99.90;;;18.68;89.90;101528.09;5051187;28;20045;-72
2023/08/05 01:52:35;;;;;;;3.10;3.00;;;18.30;99.90;;;18.66;89.63;101522.78;5035737;28;20103;-72
2023/08/05 01:55:04;;;;;;;2.85;2.75;;;18.30;99.90;;;18.63;89.93;101519.31;5045109;28;20049;-72
2023/08/05 01:57:32;;;;;;;2.90;2.80;;;18.20;99.90;;;18.58;90.37;101529.28;5045966;28;20045;-72
2023/08/05 02:00:05;;;;;;;3.15;3.05;;;18.20;99.90;;;18.65;90.22;101528.19;5061350;28;20595;-72
2023/08/05 02:02:40;;;;;;;2.80;2.70;;;18.20;99.90;;;18.77;89.85;101522.50;5043436;28;20132;-71
2023/08/05 02:05:09;;;;;;;3.25;3.15;;;18.40;99.90;;;18.86;89.25;101525.81;5046579;28;20075;-72
2023/08/05 02:07:37;;;;;;;2.97;2.88;;;18.50;99.90;;;18.96;88.66;101530.91;5044404;28;20483;-72
2023/08/05 02:10:07;;;;;;;2.75;2.65;;;18.60;99.90;;;18.90;88.06;101508.72;5046066;28;20067;-70
2023/08/05 02:12:36;;;;;;;2.60;2.50;;;18.60;99.90;;;19.08;87.77;101530.56;5045278;28;20076;-72
2023/08/05 02:15:07;;;;;;;3.03;2.92;;;18.70;99.90;;;19.10;87.34;101524.22;5060342;28;20131;-72
2023/08/05 02:17:37;;;;;;;3.17;3.08;;;18.80;99.90;;;19.04;87.34;101516.38;5046194;28;20552;-70
2023/08/05 02:20:08;;;;;;;3.28;3.17;;;18.70;99.90;;;19.03;88.27;101511.03;5043540;28;20041;-72
2023/08/05 02:22:36;;;;;;;3.30;3.20;;;18.70;99.90;;;18.95;89.38;101505.03;5034956;28;20053;-72
2023/08/05 02:25:06;;;;;;;3.00;2.90;;;18.50;99.90;;;18.71;89.86;101494.06;5050364;28;20475;-72
2023/08/05 02:27:34;;;;;;;3.00;2.90;;;18.40;99.90;;;18.42;91.19;101499.34;5033854;28;20049;-72
2023/08/05 02:30:03;;;;;;;2.90;2.80;;;18.00;99.90;;;18.42;91.75;101487.69;5041789;28;20288;-70
2023/08/05 02:32:34;;;;;;;;;;;18.00;99.90;;;18.44;91.94;101478.75;5045519;28;20144;-71
2023/08/05 02:35:03;;;;;;;3.58;3.47;;;18.00;99.90;;;18.49;92.02;101479.47;5059448;28;19947;-72
2023/08/05 02:37:32;;;;;;;3.25;3.15;;;18.00;99.90;;;18.49;91.83;101478.59;5046139;28;20104;-72
2023/08/05 02:40:00;;;;;;;3.17;3.08;;;18.10;99.90;;;18.53;91.73;101470.44;5042880;28;20045;-72
2023/08/05 02:42:28;;;;;;;3.53;3.42;;;18.10;99.90;;;18.54;91.78;101464.16;5050134;28;20049;-72
2023/08/05 02:44:58;;;;;;;2.70;2.60;;;18.20;99.90;;;18.47;92.31;101461.69;5034657;28;20132;-71
2023/08/05 02:47:26;;;;;;;3.67;3.47;;;18.10;99.90;;;18.58;92.19;101463.16;5034455;28;20068;-71
2023/08/05 02:49:57;;;;;;;3.13;3.03;;;18.20;99.90;;;18.60;91.93;101455.09;5038694;28;20464;-71
2023/08/05 02:52:25;;;;;;;2.95;2.85;;;18.20;99.90;;;18.58;92.01;101449.75;5044644;28;20057;-71
2023/08/05 02:54:54;;;;;;;3.08;2.97;;;18.20;99.90;;;18.53;91.72;101442.75;5044229;28;20379;-72
2023/08/05 02:57:22;;;;;;;2.97;2.88;;;18.20;99.90;;;18.51;91.79;101442.81;5060593;28;20084;-72
2023/08/05 02:59:51;;;;;;;3.30;3.20;;;18.10;99.90;;;18.33;92.56;101432.56;5058721;28;20053;-71
2023/08/05 03:02:19;;;;;;;4.47;4.20;;;18.00;99.90;;;18.31;93.58;101439.75;5045581;28;20486;-72
2023/08/05 03:04:48;;;;;;;3.47;3.38;;;18.00;99.90;;;18.38;93.67;101435.13;5057784;28;20410;-72
2023/08/05 03:07:17;;;;;;;3.40;3.30;;;17.90;99.90;;;18.43;93.57;101442.13;5049649;28;20045;-70
2023/08/05 03:09:46;;;;;;;3.00;2.90;;;18.00;99.90;;;18.48;92.81;101440.22;5034366;28;20049;-73
2023/08/05 03:12:14;;;;;;;3.03;2.92;;;18.10;99.90;;;18.45;92.42;101431.38;5034212;28;20415;-71
2023/08/05 03:14:44;;;;;;;3.58;3.47;;;18.10;99.90;;;18.39;91.97;101432.38;5051163;28;20129;-71
2023/08/05 03:17:12;;;;;;;2.70;2.60;;;18.10;99.90;;;18.38;91.72;101436.00;5043729;28;20076;-70
2023/08/05 03:19:40;;;;;;;4.05;3.67;;;18.10;99.90;;;18.36;91.50;101432.50;5059781;28;20610;-71
2023/08/05 03:22:09;;;;;;;3.35;3.25;;;18.10;99.90;;;18.22;91.24;101431.09;5058508;28;20139;-73
2023/08/05 03:24:43;;;;;;;3.58;3.38;;;18.00;99.90;;;18.15;91.65;101414.31;5057415;28;20045;-72
2023/08/05 03:27:12;;;;;;;3.50;3.30;;;17.80;99.90;;;18.11;92.15;101411.75;5032543;28;20068;-72
2023/08/05 03:29:42;;;;;;;;;;;17.80;99.90;;;18.13;92.43;101416.16;5041102;28;20099;-72
2023/08/05 03:32:12;;;;;;;3.03;2.92;;;17.80;99.90;;;18.10;92.75;101408.19;5042028;28;20378;-72
2023/08/05 03:34:41;;;;;;;3.20;3.10;;;17.80;99.90;;;18.15;92.46;101410.75;5043622;28;20064;-72
2023/08/05 03:37:09;;;;;;;3.30;3.20;;;17.90;99.90;;;18.00;92.69;101399.53;5056145;28;20449;-72
2023/08/05 03:39:38;;;;;;;3.38;3.28;;;17.80;99.90;;;17.88;93.72;101388.28;5076234;28;20068;-73
2023/08/05 03:42:08;;;;;;;2.97;2.88;;;17.60;99.90;;;17.86;94.47;101379.41;5057644;28;20076;-72
2023/08/05 03:44:37;;;;;;;3.27;3.17;;;17.50;99.90;;;17.82;95.81;101377.72;5056956;28;20049;-72
2023/08/05 03:47:05;;;;;;;3.42;3.33;;;17.50;99.90;;;17.72;97.13;101376.19;5033489;28;20045;-72
2023/08/05 03:49:33;;;;;;;3.15;3.05;;;17.40;99.90;;;17.87;97.08;101378.47;5033784;28;20046;-72
2023/08/05 03:52:03;;;;;;;3.85;3.67;;;17.50;99.90;;;17.74;97.44;101372.56;5033482;28;20072;-72
2023/08/05 03:54:31;;;;;;;3.10;2.97;;;17.40;99.90;;;17.58;98.32;101368.50;5034916;28;20053;-72
2023/08/05 03:57:02;;;;;;;3.20;3.10;;;17.30;99.90;;;17.61;98.64;101367.56;5043472;28;20071;-72
2023/08/05 03:59:32;;;;;;;3.95;3.75;;;17.20;99.90;;;17.56;98.41;101367.69;5059298;28;20128;-72
2023/08/05 04:02:00;;;;;;;4.37;4.17;;;17.20;99.90;;;17.42;99.26;101352.88;5048939;28;20081;-72
2023/08/05 04:04:29;;;;;;;4.32;4.03;;;17.20;99.90;;;17.32;99.86;101356.66;5044708;28;20124;-72
2023/08/05 04:06:58;;;;;;;3.95;3.75;;;17.00;99.90;;;17.22;100.00;101356.00;5056494;28;20045;-72
2023/08/05 04:09:26;;;;;;;3.17;3.08;;;16.90;99.90;;;17.39;100.00;101358.28;5048477;28;20487;-72
2023/08/05 04:11:57;;;;;;;3.67;3.47;;;17.00;99.90;;;17.44;99.57;101362.59;5043036;28;20042;-72
2023/08/05 04:14:25;;;;;;;3.10;3.00;;;17.10;99.90;;;17.35;99.87;101356.59;5033185;28;20049;-72
2023/08/05 04:16:55;;;;;;;3.78;3.60;;;17.10;99.90;;;17.36;100.00;101342.31;5048162;28;20048;-72
2023/08/05 04:19:24;;;;;;;4.18;3.97;;;17.10;99.90;;;17.44;99.93;101346.53;5042090;28;20053;-72
2023/08/05 04:21:52;;;;;;;3.28;3.17;;;17.20;99.90;;;17.35;100.00;101344.09;5042260;28;20071;-72
2023/08/05 04:24:24;;;;;;;3.88;3.67;;;17.10;99.90;;;17.37;100.00;101354.75;5044055;28;20102;-72
2023/08/05 04:26:53;;;;;;;4.07;3.88;;;17.10;99.90;;;17.29;100.00;101351.38;5044294;28;20045;-72
2023/08/05 04:29:22;;;;;;;3.75;3.60;;;17.10;99.90;;;17.23;100.00;101338.19;5040954;28;20396;-72
2023/08/05 04:31:52;;;;;;;3.77;3.57;;;17.00;99.90;;;17.31;100.00;101336.19;5043652;28;20048;-72
2023/08/05 04:34:22;;;;;;;3.40;3.30;;;17.00;99.90;;;17.29;100.00;101341.56;5041964;28;20311;-72
2023/08/05 04:36:51;;;;;;;3.10;3.00;;;17.10;99.90;;;17.34;100.00;101341.47;5042552;28;20049;-71
2023/08/05 04:39:22;;;;;;;3.20;3.10;;;17.10;99.90;;;17.24;100.00;101315.88;5043329;28;20049;-72
2023/08/05 04:41:50;;;;;;;3.20;3.10;;;17.10;99.90;;;17.32;100.00;101335.28;5056923;28;20049;-71
2023/08/05 04:44:18;;;;;;;3.28;3.17;;;17.10;99.90;;;17.35;100.00;101333.41;5044195;28;20045;-72
2023/08/05 04:46:47;;;;;;;3.80;3.60;;;17.20;99.90;;;17.39;100.00;101328.84;5040765;28;20041;-72
2023/08/05 04:49:16;;;;;;;3.53;3.42;;;17.20;99.90;;;17.39;100.00;101323.50;5032633;28;20085;-72
2023/08/05 04:51:45;;;;;;;3.55;3.45;;;17.30;99.90;;;17.42;100.00;101315.41;5035499;28;20046;-73
2023/08/05 04:54:14;;;;;;;3.97;3.78;;;17.20;99.90;;;17.43;100.00;101307.34;5036575;28;20043;-73
2023/08/05 04:56:42;;;;;;;3.40;3.30;;;17.30;99.90;;;17.43;100.00;101303.78;5038070;28;20125;-72
2023/08/05 04:59:10;;;;;;;3.75;3.55;;;17.30;99.90;;;17.42;100.00;101310.94;5046706;28;20440;-73
2023/08/05 05:01:39;;;;;;;3.00;2.90;;;17.30;99.90;;;17.51;100.00;101316.09;5046990;28;20088;-73
2023/08/05 05:04:07;;;;;;;3.20;3.10;;;17.30;99.90;;;17.42;100.00;101300.22;5045905;28;20045;-71
2023/08/05 05:06:35;;;;;;;3.45;3.28;;;17.30;99.90;;;17.49;100.00;101311.69;5047300;28;20049;-73
2023/08/05 05:09:05;;;;;;;3.10;3.00;;;17.30;99.90;;;17.51;100.00;101301.84;5044784;28;20038;-72
2023/08/05 05:11:33;;;;;;;2.90;2.80;;;17.30;99.90;;;17.46;100.00;101299.22;5051940;28;20045;-73
2023/08/05 05:14:03;;;;;;;3.25;3.15;;;17.30;99.90;;;17.45;100.00;101299.28;5051767;28;20673;-73
2023/08/05 05:16:32;;;;;;;3.80;3.60;;;17.30;99.90;;;17.35;100.00;101303.97;5036473;28;20117;-72
2023/08/05 05:19:00;;;;;;;3.50;3.40;;;17.20;99.90;;;17.26;100.00;101295.31;5045734;28;20080;-72
2023/08/05 05:21:28;;;;;;;4.47;4.15;;;17.10;99.90;;;17.19;100.00;101283.88;5046350;28;20080;-70
2023/08/05 05:23:57;;;;;;;4.18;3.97;;;17.00;99.90;;;17.03;100.00;101282.53;5058287;28;20490;-71
2023/08/05 05:26:26;;;;;;;4.10;3.90;;;16.80;99.90;;;17.10;100.00;101278.78;5046192;28;20041;-71
2023/08/05 05:28:55;;;;;;;3.10;3.00;;;16.80;99.90;;;17.05;100.00;101272.69;5045012;28;20053;-71
2023/08/05 05:31:23;;;;;;;3.45;3.35;;;16.80;99.90;;;17.20;100.00;101280.31;5047086;28;20057;-72
2023/08/05 05:33:52;;;;;;;7.82;3.38;;;16.90;99.90;;;17.15;100.00;101272.41;5044095;28;20045;-72
2023/08/05 05:36:21;;;;;;;5.97;4.07;;;16.90;99.90;;;17.02;100.00;101238.88;5043841;28;20050;-70
2023/08/05 05:38:49;;;;;;;4.13;3.92;;;16.90;99.90;;;17.12;100.00;101277.81;5047125;28;20083;-72
2023/08/05 05:41:17;;;;;;;4.53;4.32;;;16.90;99.90;;;17.03;100.00;101272.69;5060067;28;20451;-73
2023/08/05 05:43:47;;;;;;;3.45;3.35;;;16.90;99.90;;;17.07;100.00;101268.16;5046338;28;20049;-71
2023/08/05 05:46:17;;;;;;;3.53;3.37;;;16.80;99.90;;;17.13;100.00;101274.22;5045282;28;20049;-72
2023/08/05 05:48:45;;;;;;;3.45;3.35;;;16.90;99.90;;;17.06;100.00;101277.09;5045520;28;20045;-72
2023/08/05 05:51:14;;;;;;;3.50;3.40;;;16.90;99.90;;;17.21;100.00;101273.19;5046419;28;20106;-72
2023/08/05 05:53:42;;;;;;;4.07;3.88;;;17.00;99.90;;;17.31;100.00;101275.56;5044270;28;20272;-72
2023/08/05 05:56:11;;;;;;;8.00;4.07;;;17.10;99.90;;;17.28;100.00;101277.44;5047538;28;20106;-72
2023/08/05 05:58:39;;;;;;;3.95;3.75;;;17.10;99.90;;;17.28;100.00;101272.09;5043418;28;20138;-72
2023/08/05 06:01:09;;;;;;;4.75;4.45;;;17.10;99.90;;;17.30;100.00;101267.59;5050691;28;20088;-72
2023/08/05 06:03:38;;;;;;;22.10;4.03;;;17.10;99.90;;;17.41;100.00;101262.81;5035778;28;20101;-70
2023/08/05 06:06:07;;;;;;;3.90;3.70;;;17.20;99.90;;;17.37;100.00;101262.03;5035231;28;20051;-71
2023/08/05 06:08:36;;;;;;;4.63;4.32;;;17.20;99.90;;;17.35;100.00;101254.97;5037068;28;20061;-71
2023/08/05 06:11:05;;;;;;;4.88;4.47;;;17.20;99.90;;;17.14;100.00;101265.31;5045153;28;20126;-72
2023/08/05 06:13:33;;;;;;;3.97;3.78;;;17.00;99.90;;;17.24;100.00;101271.28;5045586;28;20103;-72
2023/08/05 06:16:02;;;;;;;4.07;3.88;;;17.00;99.90;;;17.27;100.00;101284.56;5050944;28;20049;-72
2023/08/05 06:18:31;;;;;;;5.40;4.90;;;17.10;99.90;;;17.39;100.00;101268.22;5061706;28;20103;-72
2023/08/05 06:21:00;;;;;;;3.83;3.63;;;17.20;99.90;;;17.48;100.00;101257.31;5043319;28;20049;-72
2023/08/05 06:23:28;;;;;;;3.75;3.55;;;17.30;99.90;;;17.55;100.00;101260.72;5075587;28;20124;-72
2023/08/05 06:25:56;;;;;;;4.55;4.25;;;17.30;99.90;;;17.68;100.00;101263.00;5046365;28;20099;-73
2023/08/05 06:28:25;;;;;;;7.93;7.20;;;17.50;99.90;;;17.63;100.00;101262.28;5044014;28;20041;-70
2023/08/05 06:30:57;;;;;;;4.40;4.20;;;17.50;99.90;;;17.63;100.00;101270.31;5052327;28;20094;-72
2023/08/05 06:33:25;;;;;;;3.78;3.58;;;17.40;99.90;;;17.62;99.57;101265.84;5044974;28;20482;-71
2023/08/05 06:35:56;;;;;;;8.35;7.75;;;17.40;99.90;;;17.85;100.00;101257.19;5059617;28;20139;-72
2023/08/05 06:38:24;;;;;;;;;;;17.60;99.90;;;17.85;99.70;101259.88;5046430;28;20052;-72
2023/08/05 06:40:53;;;;;;;4.63;4.28;;;17.70;99.90;;;17.81;100.00;101266.22;5042857;28;20445;-72
2023/08/05 06:43:21;;;;;;;5.22;4.93;;;17.60;99.90;;;17.90;99.97;101249.94;5034791;28;20127;-71
2023/08/05 06:45:53;;;;;;;5.53;5.00;;;17.70;99.90;;;18.05;99.63;101249.47;5034774;28;20447;-72
2023/08/05 06:48:23;;;;;;;4.07;3.88;;;17.80;99.90;;;18.08;98.61;101230.63;5034372;28;20509;-71
2023/08/05 06:50:51;;;;;;;3.97;3.78;;;17.90;99.90;;;18.25;98.54;101225.69;5036426;28;20087;-72
2023/08/05 06:53:21;;;;;;;4.28;4.00;;;18.00;99.90;;;18.42;98.01;101226.06;5044017;28;20033;-72
2023/08/05 06:55:49;;;;;;;4.03;3.83;;;18.20;99.90;;;18.59;97.95;101222.84;5045839;28;20045;-71
2023/08/05 06:58:18;;;;;;;5.55;5.15;;;18.40;99.90;;;18.51;96.87;101214.19;5043027;28;20061;-71
2023/08/05 07:00:53;;;;;;;3.72;3.53;;;18.30;99.90;;;18.50;96.72;101220.47;5045905;28;20068;-72
2023/08/05 07:03:22;;;;;;;4.07;3.88;;;18.30;99.90;;;18.40;95.81;101208.25;5034097;28;20042;-72
2023/08/05 07:05:55;;;;;;;3.30;3.10;;;18.20;99.90;;;18.51;95.25;101201.66;5034561;28;20048;-72
2023/08/05 07:08:25;;;;;;;14.50;4.53;;;18.30;99.90;;;18.36;94.56;101212.84;5066238;28;20307;-72
2023/08/05 07:10:56;;;;;;;7.63;5.82;;;18.20;99.90;;;18.55;94.82;101205.13;5037191;28;20045;-71
2023/08/05 07:13:24;;;;;;;4.20;4.00;;;18.30;99.90;;;18.56;93.24;101218.47;5041647;28;20072;-71
2023/08/05 07:15:59;;;;;;;4.03;3.80;;;18.40;99.90;;;18.49;94.04;101197.28;5034202;28;20044;-72
2023/08/05 07:18:28;;;;;;;6.63;6.05;;;18.40;99.90;;;18.41;93.40;101186.75;5043324;28;20069;-72
2023/08/05 07:20:57;;;;;;;5.13;4.63;;;18.40;99.90;;;18.51;93.71;101201.66;5044020;28;20079;-72
2023/08/05 07:23:26;;;;;;;5.47;4.45;;;18.30;99.90;;;18.43;94.58;101211.75;5043714;28;20510;-72
2023/08/05 07:25:55;;;;;;;5.15;4.70;;;18.30;99.90;;;18.48;93.31;101196.41;5043366;28;20053;-73
2023/08/05 07:28:23;;;;;;;3.58;3.47;;;18.30;99.90;;;18.71;93.06;101195.66;5044544;28;20048;-72
2023/08/05 07:31:03;;;;;;;3.53;3.33;;;18.50;99.90;;;18.88;92.40;101199.56;5042153;28;20060;-72
2023/08/05 07:33:32;;;;;;;4.07;3.88;;;18.60;99.90;;;18.98;90.97;101185.84;5033611;28;20057;-73
2023/08/05 07:36:09;;;;;;;4.25;3.53;;;18.80;99.90;;;18.99;91.10;101183.09;5033484;28;20052;-73
2023/08/05 07:38:40;;;;;;;4.28;4.07;;;18.80;99.90;;;19.01;90.58;101188.44;5033834;28;20077;-72
2023/08/05 07:41:13;;;;;;;3.78;3.58;;;18.80;99.90;;;19.24;91.46;101188.50;5041945;28;20045;-71
2023/08/05 07:43:42;;;;;;;3.95;3.75;;;19.00;99.90;;;19.30;89.54;101189.16;5044509;28;20635;-73
2023/08/05 07:46:13;;;;;;;5.07;4.65;;;19.10;99.90;;;19.30;88.88;101189.16;5043004;28;20053;-73
2023/08/05 07:48:45;;;;;;;4.15;3.95;;;19.10;99.90;;;19.09;89.48;101189.00;5042866;28;20053;-71
2023/08/05 07:51:14;;;;;;;4.95;4.43;;;19.00;99.90;;;19.26;89.50;101192.03;5044390;28;20045;-73
2023/08/05 07:53:43;;;;;;;3.65;3.45;;;19.00;99.90;;;19.21;88.82;101191.28;5041548;28;20487;-73
2023/08/05 07:56:13;;;;;;;4.93;4.63;;;19.00;99.90;;;19.26;88.87;101200.06;5033172;28;20075;-73
2023/08/05 07:58:45;;;;;;;4.45;4.25;;;19.10;99.90;;;19.17;89.15;101173.53;5033117;28;20064;-72
2023/08/05 08:01:19;;;;;;;3.28;3.17;;;19.00;99.90;;;19.36;89.26;101159.47;5033308;28;20132;-71
2023/08/05 08:03:48;;;;;;;4.22;3.95;;;19.10;99.90;;;19.27;88.67;101175.88;5035931;28;20092;-73
2023/08/05 08:06:19;;;;;;;3.50;3.30;;;19.10;99.90;;;19.28;88.12;101176.75;5042006;28;20041;-72
2023/08/05 08:08:51;;;;;;;4.18;3.97;;;19.10;99.90;;;19.36;88.61;101145.16;5040934;28;20064;-71
2023/08/05 08:11:20;;;;;;;3.53;3.33;;;19.10;99.90;;;19.43;87.94;101141.34;5044138;28;20049;-72
2023/08/05 08:13:48;;;;;;;3.65;3.45;;;19.20;99.90;;;19.59;87.94;101137.16;5041879;28;20041;-72
2023/08/05 08:16:18;;;;;;;3.03;2.92;;;19.30;99.90;;;19.65;87.09;101134.25;5043191;28;20041;-71
2023/08/05 08:18:46;;;;;;;6.45;5.82;;;19.40;99.90;;;19.45;85.77;101145.72;5042996;28;20057;-73
2023/08/05 08:21:15;;;;;;;3.97;3.67;;;19.30;99.90;;;19.50;86.75;101140.19;5042213;28;20045;-72
2023/08/05 08:23:43;;;;;;;3.97;3.67;;;19.30;99.90;;;19.53;86.45;101140.09;5043470;28;20540;-72
2023/08/05 08:26:13;;;;;;;3.15;3.05;;;19.30;99.90;;;19.69;86.98;101144.81;5041381;28;20057;-72
2023/08/05 08:28:41;;;;;;;3.70;3.50;;;19.40;99.90;;;19.50;87.83;101122.28;5044540;28;20106;-71
2023/08/05 08:31:09;;;;;;;7.93;3.90;;;19.30;99.90;;;19.55;86.49;101136.41;5032583;28;20438;-71
2023/08/05 08:33:38;;;;;;;3.80;3.55;;;19.30;99.90;;;19.44;87.29;101124.31;5033023;28;20049;-73
2023/08/05 08:36:06;;;;;;;3.95;3.75;;;19.20;99.90;;;19.56;87.21;101116.69;5032565;28;20414;-71
2023/08/05 08:38:34;;;;;;;4.07;3.78;;;19.30;99.90;;;19.58;86.63;101108.56;5033657;28;20446;-73
2023/08/05 08:41:04;;;;;;;3.35;3.20;;;19.40;99.90;;;19.57;87.06;101106.81;5042987;28;20167;-72
2023/08/05 08:43:34;;;;;;;3.22;3.10;;;19.40;99.90;;;19.71;86.71;101101.81;5042302;28;20069;-72
2023/08/05 08:46:07;;;;;;;4.30;4.00;;;19.40;99.90;;;19.55;86.52;101119.44;5041797;28;20116;-72
2023/08/05 08:48:37;;;;;;;5.75;5.10;;;19.40;99.90;;;19.45;85.85;101099.25;5044096;28;20471;-72
2023/08/05 08:51:08;;;;;;;4.03;3.83;;;19.30;99.90;;;19.52;86.35;101095.38;5032703;28;20045;-72
2023/08/05 08:53:36;;;;;;;3.55;3.35;;;19.30;99.90;;;19.16;86.10;101069.88;5039442;28;20291;-73
2023/08/05 08:56:05;;;;;;;4.93;4.47;;;19.20;99.90;;;19.30;86.03;101100.63;5032343;28;20095;-72
2023/08/05 08:58:36;;;;;;;4.43;3.92;;;19.10;99.90;;;19.05;86.56;101106.94;5032667;28;20059;-73
2023/08/05 09:01:06;;;;;;;3.35;3.25;;;18.80;99.90;;;19.15;87.62;101084.22;5040269;28;20561;-73
2023/08/05 09:03:37;;;;;;;3.05;2.95;;;18.90;99.90;;;19.20;87.09;101083.09;5044073;28;20053;-71
2023/08/05 09:06:05;;;;;;;5.03;4.60;;;18.90;99.90;;;19.20;85.92;101083.09;5040607;28;20073;-72
2023/08/05 09:08:34;;;;;;;3.38;3.17;;;19.00;99.90;;;19.28;86.35;101080.19;5040583;28;20042;-71
2023/08/05 09:11:03;;;;;;;3.20;3.10;;;19.00;99.90;;;19.28;85.96;101074.81;5043574;28;20041;-73
2023/08/05 09:13:31;;;;;;;3.88;3.67;;;19.00;99.90;;;19.34;84.69;101079.97;5041185;28;20445;-72
2023/08/05 09:16:01;;;;;;;3.53;3.38;;;19.00;99.90;;;19.39;84.41;101069.94;5058622;28;20057;-73
2023/08/05 09:18:31;;;;;;;5.13;4.78;;;19.10;99.90;;;19.26;83.38;101028.38;5041980;28;20132;-72
2023/08/05 09:21:01;;;;;;;3.15;3.05;;;19.20;99.90;;;19.46;82.92;101071.47;5041511;28;20045;-73
2023/08/05 09:23:30;;;;;;;2.90;2.80;;;19.20;99.90;;;19.56;83.46;101054.09;5043325;28;20048;-72
2023/08/05 09:25:58;;;;;;;3.40;3.20;;;19.20;99.90;;;19.56;81.59;101044.22;5040374;28;20546;-72
2023/08/05 09:28:31;;;;;;;3.53;3.33;;;19.30;99.90;;;19.44;81.15;101033.97;5043818;28;20139;-70
2023/08/05 09:31:15;;;;;;;3.00;2.90;;;19.30;99.90;;;19.53;80.43;101036.28;5041202;28;20049;-73
2023/08/05 09:33:44;;;;;;;3.30;3.17;;;19.30;99.90;;;19.64;81.85;101042.13;5040601;28;20038;-72
2023/08/05 09:36:14;;;;;;;3.15;3.05;;;19.40;99.90;;;19.79;82.52;101032.59;5044513;28;20053;-72
2023/08/05 09:38:45;;;;;;;3.08;2.97;;;19.50;99.90;;;19.73;77.51;101044.44;5035926;28;20081;-71
2023/08/05 09:41:14;;;;;;;3.60;3.50;;;19.50;99.90;;;19.86;78.41;101042.13;5036000;28;20049;-72
2023/08/05 09:43:45;;;;;;;3.13;3.03;;;19.60;99.90;;;20.04;79.31;101043.22;5035845;28;20128;-73
2023/08/05 09:46:18;;;;;;;2.90;2.80;;;19.70;99.90;;;20.18;79.72;101033.72;5042021;28;20045;-72
2023/08/05 09:48:46;;;;;;;2.97;2.85;;;19.90;99.90;;;20.24;78.24;101028.09;5044403;28;20052;-72
2023/08/05 09:51:16;;;;;;;5.90;3.60;;;19.90;99.90;;;19.94;75.39;101036.50;5047580;28;20045;-72
2023/08/05 09:53:49;;;;;;;3.00;2.90;;;19.80;99.90;;;20.05;75.66;101027.06;5044165;28;20128;-71
2023/08/05 09:56:20;;;;;;;3.60;3.40;;;19.80;99.90;;;19.87;76.70;101016.16;5046411;28;20053;-72
2023/08/05 09:58:49;;;;;;;3.83;3.53;;;19.60;99.90;;;19.85;78.00;101013.56;5045423;28;20049;-73
2023/08/05 10:01:20;;;;;;;3.35;3.15;;;19.60;99.90;;;19.78;78.43;101004.00;5044998;28;20037;-73
2023/08/05 10:03:50;;;;;;;2.80;2.70;;;19.60;99.90;;;19.76;76.99;101016.63;5046859;28;20075;-72
2023/08/05 10:06:19;;;;;;;3.38;3.17;;;19.50;99.90;;;19.79;77.73;101008.44;5043477;28;20072;-73
2023/08/05 10:08:48;;;;;;;3.15;3.05;;;19.50;99.90;;;19.69;77.46;101013.28;5043572;28;20099;-73
2023/08/05 10:11:17;;;;;;;3.30;3.10;;;19.50;99.90;;;19.63;77.23;101007.28;5046345;28;20067;-73
2023/08/05 10:13:52;;;;;;;2.80;2.70;;;19.40;99.90;;;19.62;78.09;101009.09;5059806;28;20115;-73
2023/08/05 10:16:24;;;;;;;3.25;3.15;;;19.30;99.90;;;19.67;79.14;101003.53;5045115;28;20060;-73
2023/08/05 10:18:53;;;;;;;3.88;3.67;;;19.40;99.90;;;19.64;79.15;101003.66;5046149;28;20057;-73
2023/08/05 10:21:37;;;;;;;3.28;3.17;;;19.40;99.90;;;19.63;78.22;100997.41;5043077;28;20483;-73